Climatologie pour Saint-Brevin les Pins
Jour • Résumé pour janvier 14, 2017 Système :  Métrique    Anglais   Mixte
« - 1 jour
+ 1 jour »
Jour Semaine Mois Année Personnalisé
  Maximum : Minimum : Moyenne :
Température sous abri : 10.2 °C 0.4 °C 4.4 °C
Point de rosée : 5.7 °C -0.6 °C 2.7 °C
Humidité : 97 % 73 % 89 %
Vitesse du vent : 22.5 km/h 0.0 km/h 5 km/h
Rafale : 25.7 km/h - -
Direction :- - NW
Pression : 1026.6 hPa 1023.2 hPa -
Précipitations : 0.5 mm    
Historical Graphs
 
 
Tableau de données pour janvier 14, 2017
Heure Tempé Pt rosée Pression Vent Vitesse Rafale Humidité Taux pluie (/hr) Soleil
00:00 3.2 °C 0.4 °C 1023.2 hPa NW 8.0 km/h 19.3 km/h 82 % 0.0 mm 0 W/m2
00:10 3.1 °C 0.4 °C 1023.2 hPa NNW 9.7 km/h 19.3 km/h 83 % 0.0 mm 0 W/m2
00:15 3.1 °C 0.3 °C 1023.2 hPa NNW 6.4 km/h 17.7 km/h 82 % 0.0 mm 0 W/m2
00:20 3.0 °C 0.4 °C 1023.2 hPa NNW 20.9 km/h 22.5 km/h 83 % 0.0 mm 0 W/m2
00:25 3.2 °C 0.4 °C 1023.6 hPa NW 11.3 km/h 22.5 km/h 82 % 0.0 mm 0 W/m2
00:30 3.2 °C 0.4 °C 1023.6 hPa NW 6.4 km/h 20.9 km/h 82 % 0.0 mm 0 W/m2
00:35 3.1 °C 0.3 °C 1023.6 hPa WNW 9.7 km/h 19.3 km/h 82 % 0.0 mm 0 W/m2
00:40 3.1 °C 0.4 °C 1023.6 hPa NW 11.3 km/h 19.3 km/h 83 % 0.0 mm 0 W/m2
00:50 3.0 °C 0.6 °C 1023.6 hPa NW 8.0 km/h 14.5 km/h 84 % 0.0 mm 0 W/m2
00:55 3.0 °C 0.6 °C 1023.6 hPa NW 8.0 km/h 17.7 km/h 84 % 0.0 mm 0 W/m2
01:00 2.8 °C 0.4 °C 1023.6 hPa NW 4.8 km/h 17.7 km/h 84 % 0.0 mm 0 W/m2
01:05 2.8 °C 0.6 °C 1023.6 hPa NNW 9.7 km/h 16.1 km/h 85 % 0.0 mm 0 W/m2
01:10 2.8 °C 0.5 °C 1023.6 hPa NW 6.4 km/h 16.1 km/h 85 % 0.0 mm 0 W/m2
01:15 2.7 °C 0.6 °C 1023.6 hPa WNW 14.5 km/h 16.1 km/h 86 % 0.0 mm 0 W/m2
01:20 2.8 °C 0.7 °C 1023.6 hPa NW 1.6 km/h 17.7 km/h 86 % 0.0 mm 0 W/m2
01:25 2.8 °C 0.7 °C 1023.6 hPa WNW 12.9 km/h 17.7 km/h 86 % 0.0 mm 0 W/m2
01:30 2.8 °C 0.7 °C 1023.6 hPa NW 4.8 km/h 22.5 km/h 86 % 0.0 mm 0 W/m2
01:35 2.9 °C 0.8 °C 1023.6 hPa NW 3.2 km/h 22.5 km/h 86 % 0.0 mm 0 W/m2
01:40 2.9 °C 0.7 °C 1023.6 hPa NW 4.8 km/h 19.3 km/h 85 % 0.0 mm 0 W/m2
01:45 2.8 °C 0.7 °C 1023.6 hPa North 4.8 km/h 16.1 km/h 86 % 0.0 mm 0 W/m2
01:50 2.7 °C 0.6 °C 1023.6 hPa NW 8.0 km/h 16.1 km/h 86 % 0.0 mm 0 W/m2
01:55 2.6 °C 0.5 °C 1023.6 hPa North 9.7 km/h 17.7 km/h 86 % 0.0 mm 0 W/m2
02:00 2.7 °C 0.6 °C 1023.6 hPa NW 4.8 km/h 17.7 km/h 86 % 0.0 mm 0 W/m2
02:05 2.6 °C 0.3 °C 1023.9 hPa NNW 6.4 km/h 14.5 km/h 85 % 0.0 mm 0 W/m2
02:15 2.4 °C 0.3 °C 1023.9 hPa NW 3.2 km/h 16.1 km/h 86 % 0.0 mm 0 W/m2
02:20 2.5 °C 0.4 °C 1023.9 hPa NNW 9.7 km/h 19.3 km/h 86 % 0.0 mm 0 W/m2
02:25 2.4 °C 0.3 °C 1024.3 hPa NW 11.3 km/h 19.3 km/h 86 % 0.0 mm 0 W/m2
02:30 2.3 °C 0.3 °C 1024.3 hPa North 4.8 km/h 16.1 km/h 87 % 0.0 mm 0 W/m2
02:35 2.2 °C 0.2 °C 1024.3 hPa NW 3.2 km/h 16.1 km/h 87 % 0.0 mm 0 W/m2
02:40 2.1 °C 0.3 °C 1024.3 hPa NNW 14.5 km/h 16.1 km/h 88 % 0.0 mm 0 W/m2
02:45 2.0 °C 0.2 °C 1024.3 hPa NNW 14.5 km/h 16.1 km/h 88 % 0.0 mm 0 W/m2
02:50 1.9 °C 0.2 °C 1024.3 hPa NNW 1.6 km/h 14.5 km/h 88 % 0.0 mm 0 W/m2
02:55 1.8 °C 0.0 °C 1024.3 hPa NNW 1.6 km/h 14.5 km/h 88 % 0.0 mm 0 W/m2
03:00 1.7 °C 0.1 °C 1024.3 hPa NW 1.6 km/h 14.5 km/h 89 % 0.0 mm 0 W/m2
03:05 1.7 °C 0.0 °C 1024.3 hPa Calm   6.4 km/h 89 % 0.0 mm 0 W/m2
03:10 1.7 °C 0.1 °C 1024.3 hPa WNW 1.6 km/h 8.0 km/h 89 % 0.0 mm 0 W/m2
03:15 1.4 °C -0.2 °C 1024.6 hPa Calm   11.3 km/h 89 % 0.0 mm 0 W/m2
03:20 1.3 °C -0.2 °C 1024.6 hPa Calm   11.3 km/h 90 % 0.0 mm 0 W/m2
03:25 1.3 °C 0.0 °C 1024.6 hPa NW 3.2 km/h 8.0 km/h 91 % 0.0 mm 0 W/m2
03:30 1.2 °C -0.1 °C 1024.6 hPa NNW 3.2 km/h 9.7 km/h 91 % 0.0 mm 0 W/m2
03:35 1.4 °C 0.3 °C 1024.6 hPa NW 6.4 km/h 14.5 km/h 92 % 0.0 mm 0 W/m2
03:40 2.3 °C 1.1 °C 1024.6 hPa WNW 6.4 km/h 14.5 km/h 92 % 0.0 mm 0 W/m2
03:45 2.8 °C 1.5 °C 1024.6 hPa North 12.9 km/h 19.3 km/h 91 % 0.0 mm 0 W/m2
03:50 3.0 °C 1.4 °C 1024.6 hPa NW 6.4 km/h 19.3 km/h 89 % 0.0 mm 0 W/m2
03:55 3.1 °C 1.3 °C 1024.6 hPa NW 11.3 km/h 20.9 km/h 88 % 0.0 mm 0 W/m2
04:00 2.9 °C 1.2 °C 1024.6 hPa NW 1.6 km/h 20.9 km/h 88 % 0.0 mm 0 W/m2
04:05 2.7 °C 0.9 °C 1024.6 hPa NW 3.2 km/h 12.9 km/h 88 % 0.0 mm 0 W/m2
04:10 2.4 °C 0.7 °C 1024.6 hPa Calm   11.3 km/h 88 % 0.0 mm 0 W/m2
04:15 2.3 °C 0.7 °C 1024.6 hPa NNW 1.6 km/h 8.0 km/h 89 % 0.0 mm 0 W/m2
04:20 2.3 °C 0.7 °C 1024.6 hPa NW 4.8 km/h 8.0 km/h 89 % 0.0 mm 0 W/m2
04:25 2.1 °C 0.6 °C 1024.6 hPa NW 1.6 km/h 11.3 km/h 90 % 0.0 mm 0 W/m2
04:30 1.9 °C 0.5 °C 1024.6 hPa NW 4.8 km/h 11.3 km/h 90 % 0.0 mm 0 W/m2
04:35 2.0 °C 0.5 °C 1024.6 hPa NW 6.4 km/h 11.3 km/h 90 % 0.0 mm 0 W/m2
04:40 1.9 °C 0.4 °C 1024.6 hPa NW 6.4 km/h 11.3 km/h 90 % 0.0 mm 0 W/m2
04:45 1.9 °C 0.6 °C 1024.9 hPa NW 1.6 km/h 11.3 km/h 91 % 0.0 mm 0 W/m2
04:50 1.9 °C 0.6 °C 1024.6 hPa Calm   11.3 km/h 91 % 0.0 mm 0 W/m2
04:55 1.9 °C 0.6 °C 1024.6 hPa NW 1.6 km/h 8.0 km/h 91 % 0.0 mm 0 W/m2
05:00 1.7 °C 0.4 °C 1024.6 hPa NW 1.6 km/h 8.0 km/h 91 % 0.0 mm 0 W/m2
05:05 1.6 °C 0.4 °C 1024.6 hPa Calm   8.0 km/h 92 % 0.0 mm 0 W/m2
05:10 1.3 °C 0.0 °C 1024.9 hPa NW 6.4 km/h 8.0 km/h 91 % 0.0 mm 0 W/m2
05:15 1.3 °C 0.2 °C 1024.9 hPa NNW 3.2 km/h 8.0 km/h 92 % 0.0 mm 0 W/m2
05:20 1.4 °C 0.3 °C 1024.9 hPa NNW 3.2 km/h 8.0 km/h 92 % 0.0 mm 0 W/m2
05:25 1.2 °C 0.1 °C 1024.6 hPa North 3.2 km/h 11.3 km/h 92 % 0.0 mm 0 W/m2
05:30 1.2 °C 0.1 °C 1024.6 hPa Calm   11.3 km/h 92 % 0.0 mm 0 W/m2
05:35 0.9 °C -0.2 °C 1024.6 hPa Calm   6.4 km/h 92 % 0.0 mm 0 W/m2
05:40 0.9 °C -0.1 °C 1024.6 hPa Calm   6.4 km/h 93 % 0.0 mm 0 W/m2
05:45 0.7 °C -0.4 °C 1024.6 hPa NW 1.6 km/h 4.8 km/h 92 % 0.0 mm 0 W/m2
05:50 0.5 °C -0.5 °C 1024.6 hPa Calm   6.4 km/h 93 % 0.0 mm 0 W/m2
05:55 0.4 °C -0.6 °C 1024.9 hPa Calm   6.4 km/h 93 % 0.0 mm 0 W/m2
06:00 0.4 °C -0.6 °C 1024.9 hPa NNW 3.2 km/h 6.4 km/h 93 % 0.0 mm 0 W/m2
06:05 0.4 °C -0.5 °C 1024.9 hPa NNW 3.2 km/h 6.4 km/h 94 % 0.0 mm 0 W/m2
06:10 0.7 °C -0.1 °C 1024.6 hPa NNW 1.6 km/h 9.7 km/h 94 % 0.0 mm 0 W/m2
06:15 0.9 °C 0.1 °C 1024.6 hPa NNW 1.6 km/h 9.7 km/h 94 % 0.0 mm 0 W/m2
06:20 1.0 °C 0.1 °C 1024.9 hPa Calm   6.4 km/h 94 % 0.0 mm 0 W/m2
06:25 0.9 °C 0.0 °C 1024.9 hPa North 4.8 km/h 6.4 km/h 94 % 0.0 mm 0 W/m2
06:30 0.9 °C -0.1 °C 1024.9 hPa NNW 1.6 km/h 6.4 km/h 93 % 0.0 mm 0 W/m2
06:35 1.0 °C 0.1 °C 1024.9 hPa Calm   4.8 km/h 94 % 0.0 mm 0 W/m2
06:45 1.3 °C 0.4 °C 1024.9 hPa NNW 3.2 km/h 4.8 km/h 94 % 0.0 mm 0 W/m2
06:50 1.4 °C 0.6 °C 1024.9 hPa Calm   6.4 km/h 94 % 0.0 mm 0 W/m2
06:55 1.6 °C 0.5 °C 1024.9 hPa Calm   6.4 km/h 93 % 0.0 mm 0 W/m2
07:00 1.6 °C 0.5 °C 1024.9 hPa Calm   3.2 km/h 93 % 0.0 mm 0 W/m2
07:05 1.6 °C 0.6 °C 1024.9 hPa NNW 3.2 km/h 4.8 km/h 93 % 0.0 mm 0 W/m2
07:15 1.8 °C 0.8 °C 1024.9 hPa NW 6.4 km/h 9.7 km/h 93 % 0.0 mm 0 W/m2
07:20 1.6 °C 0.5 °C 1025.3 hPa NNW 1.6 km/h 9.7 km/h 92 % 0.0 mm 0 W/m2
07:25 1.7 °C 0.7 °C 1025.3 hPa NNW 4.8 km/h 9.7 km/h 93 % 0.0 mm 0 W/m2
07:30 1.7 °C 0.7 °C 1025.3 hPa NNW 3.2 km/h 9.7 km/h 93 % 0.0 mm 0 W/m2
07:35 1.8 °C 0.8 °C 1025.3 hPa NNW 1.6 km/h 9.7 km/h 93 % 0.0 mm 0 W/m2
07:40 1.9 °C 0.9 °C 1025.3 hPa NNW 4.8 km/h 8.0 km/h 93 % 0.0 mm 0 W/m2
07:45 1.9 °C 0.9 °C 1024.9 hPa Calm   9.7 km/h 93 % 0.0 mm 0 W/m2
07:50 1.8 °C 0.6 °C 1025.3 hPa NNW 3.2 km/h 9.7 km/h 92 % 0.0 mm 0 W/m2
07:55 1.5 °C 0.3 °C 1025.3 hPa NW 3.2 km/h 8.0 km/h 92 % 0.0 mm 0 W/m2
08:00 1.4 °C 0.4 °C 1025.3 hPa NW 3.2 km/h 6.4 km/h 93 % 0.0 mm 0 W/m2
08:05 1.2 °C 0.2 °C 1025.3 hPa Calm   6.4 km/h 93 % 0.0 mm 0 W/m2
08:10 1.0 °C 0.0 °C 1025.3 hPa Calm   8.0 km/h 93 % 0.0 mm 0 W/m2
08:15 1.0 °C 0.1 °C 1025.3 hPa Calm   8.0 km/h 94 % 0.0 mm 0 W/m2
08:20 0.9 °C 0.0 °C 1025.6 hPa NW 1.6 km/h 4.8 km/h 94 % 0.0 mm 0 W/m2
08:25 0.8 °C 0.0 °C 1025.6 hPa NW 1.6 km/h 6.4 km/h 94 % 0.0 mm 0 W/m2
08:30 0.7 °C -0.2 °C 1025.6 hPa NW 3.2 km/h 8.0 km/h 94 % 0.0 mm 0 W/m2
08:35 0.4 °C -0.4 °C 1025.6 hPa NW 1.6 km/h 8.0 km/h 94 % 0.0 mm 0 W/m2
08:40 0.6 °C -0.3 °C 1025.6 hPa Calm   4.8 km/h 94 % 0.0 mm 0 W/m2
08:45 0.6 °C -0.3 °C 1025.6 hPa Calm   6.4 km/h 94 % 0.0 mm 0 W/m2
08:50 0.7 °C 0.0 °C 1025.6 hPa Calm   6.4 km/h 95 % 0.0 mm 0 W/m2
08:55 0.7 °C -0.2 °C 1026.0 hPa NNW 1.6 km/h 4.8 km/h 94 % 0.0 mm 5 W/m2
09:00 0.7 °C 0.0 °C 1026.0 hPa Calm   4.8 km/h 95 % 0.0 mm 7 W/m2
09:05 0.7 °C 0.0 °C 1026.0 hPa NW 3.2 km/h 4.8 km/h 95 % 0.0 mm 9 W/m2
09:10 0.7 °C 0.0 °C 1026.0 hPa NW 1.6 km/h 6.4 km/h 95 % 0.0 mm 11 W/m2
09:15 0.7 °C 0.0 °C 1026.0 hPa NW 1.6 km/h 6.4 km/h 95 % 0.0 mm 14 W/m2
09:20 0.6 °C -0.1 °C 1026.0 hPa NNW 6.4 km/h 8.0 km/h 95 % 0.0 mm 18 W/m2
09:25 0.7 °C 0.0 °C 1026.0 hPa Calm   8.0 km/h 95 % 0.0 mm 18 W/m2
09:30 0.8 °C 0.1 °C 1026.0 hPa NNW 6.4 km/h 8.0 km/h 95 % 0.0 mm 19 W/m2
09:35 1.1 °C 0.3 °C 1026.0 hPa Calm   8.0 km/h 95 % 0.0 mm 21 W/m2
09:40 1.1 °C 0.5 °C 1026.3 hPa NW 6.4 km/h 6.4 km/h 96 % 0.0 mm 23 W/m2
09:45 1.4 °C 0.9 °C 1026.3 hPa WNW 6.4 km/h 8.0 km/h 96 % 0.0 mm 25 W/m2
09:50 1.8 °C 1.3 °C 1026.0 hPa WNW 3.2 km/h 9.7 km/h 96 % 0.0 mm 26 W/m2
09:55 2.1 °C 1.5 °C 1026.3 hPa NNW 3.2 km/h 9.7 km/h 96 % 0.0 mm 28 W/m2
10:00 2.4 °C 1.8 °C 1026.3 hPa WNW 3.2 km/h 9.7 km/h 96 % 0.0 mm 28 W/m2
10:05 2.6 °C 2.0 °C 1026.3 hPa Calm   9.7 km/h 96 % 0.0 mm 30 W/m2
10:10 2.9 °C 2.2 °C 1026.3 hPa Calm   6.4 km/h 95 % 0.0 mm 30 W/m2
10:15 3.2 °C 2.4 °C 1026.3 hPa NW 3.2 km/h 8.0 km/h 95 % 0.0 mm 32 W/m2
10:20 3.3 °C 2.4 °C 1026.3 hPa NW 1.6 km/h 9.7 km/h 94 % 0.0 mm 33 W/m2
10:25 3.8 °C 2.9 °C 1026.3 hPa NNW 6.4 km/h 11.3 km/h 94 % 0.0 mm 37 W/m2
10:30 4.2 °C 3.2 °C 1026.3 hPa WNW 6.4 km/h 11.3 km/h 93 % 0.0 mm 158 W/m2
10:35 4.7 °C 3.4 °C 1026.3 hPa WNW 4.8 km/h 12.9 km/h 91 % 0.0 mm 165 W/m2
10:40 5.0 °C 3.5 °C 1026.3 hPa NW 1.6 km/h 16.1 km/h 90 % 0.0 mm 176 W/m2
10:50 5.2 °C 3.4 °C 1026.3 hPa NW 11.3 km/h 16.1 km/h 88 % 0.0 mm 199 W/m2
10:55 5.4 °C 3.6 °C 1026.3 hPa WNW 6.4 km/h 19.3 km/h 88 % 0.0 mm 211 W/m2
11:00 5.7 °C 3.7 °C 1026.3 hPa WNW 6.4 km/h 19.3 km/h 87 % 0.0 mm 220 W/m2
11:05 5.9 °C 3.6 °C 1026.3 hPa WNW 6.4 km/h 14.5 km/h 85 % 0.0 mm 229 W/m2
11:10 6.1 °C 3.8 °C 1026.3 hPa NW 4.8 km/h 14.5 km/h 85 % 0.0 mm 239 W/m2
11:15 6.1 °C 3.8 °C 1026.3 hPa NW 9.7 km/h 17.7 km/h 85 % 0.0 mm 250 W/m2
11:20 6.4 °C 3.9 °C 1026.3 hPa NW 9.7 km/h 17.7 km/h 84 % 0.0 mm 264 W/m2
11:25 6.7 °C 4.0 °C 1026.3 hPa NW 3.2 km/h 16.1 km/h 83 % 0.0 mm 265 W/m2
11:30 6.9 °C 4.0 °C 1026.3 hPa NW 4.8 km/h 17.7 km/h 82 % 0.0 mm 272 W/m2
11:35 7.1 °C 4.0 °C 1026.3 hPa NNW 14.5 km/h 17.7 km/h 81 % 0.0 mm 276 W/m2
11:40 7.3 °C 4.3 °C 1026.3 hPa NW 4.8 km/h 16.1 km/h 81 % 0.0 mm 279 W/m2
11:45 7.5 °C 4.3 °C 1026.3 hPa NW 4.8 km/h 17.7 km/h 80 % 0.0 mm 287 W/m2
11:50 7.6 °C 4.1 °C 1026.3 hPa NNW 9.7 km/h 17.7 km/h 79 % 0.0 mm 292 W/m2
11:55 7.7 °C 4.1 °C 1026.3 hPa WNW 11.3 km/h 16.1 km/h 78 % 0.0 mm 297 W/m2
12:00 7.8 °C 4.0 °C 1026.3 hPa NW 9.7 km/h 19.3 km/h 77 % 0.0 mm 302 W/m2
12:05 8.0 °C 4.2 °C 1026.3 hPa NNW 9.7 km/h 19.3 km/h 77 % 0.0 mm 309 W/m2
12:10 8.2 °C 4.6 °C 1026.0 hPa NW 11.3 km/h 19.3 km/h 78 % 0.0 mm 315 W/m2
12:15 8.2 °C 4.6 °C 1026.0 hPa NNW 8.0 km/h 17.7 km/h 78 % 0.0 mm 330 W/m2
12:20 8.2 °C 4.4 °C 1026.0 hPa NNW 3.2 km/h 17.7 km/h 77 % 0.0 mm 362 W/m2
12:25 8.6 °C 4.9 °C 1026.0 hPa North 6.4 km/h 19.3 km/h 78 % 0.0 mm 353 W/m2
12:30 8.4 °C 4.6 °C 1026.0 hPa NNW 11.3 km/h 22.5 km/h 77 % 0.0 mm 192 W/m2
12:35 8.3 °C 4.7 °C 1026.3 hPa North 14.5 km/h 22.5 km/h 78 % 0.0 mm 207 W/m2
12:40 8.3 °C 4.7 °C 1026.0 hPa NNW 8.0 km/h 20.9 km/h 78 % 0.0 mm 181 W/m2
12:45 8.0 °C 4.4 °C 1026.3 hPa WNW 9.7 km/h 19.3 km/h 78 % 0.0 mm 144 W/m2
12:50 8.1 °C 4.8 °C 1026.0 hPa NW 12.9 km/h 19.3 km/h 80 % 0.0 mm 360 W/m2
12:55 8.7 °C 5.2 °C 1026.0 hPa NNW 22.5 km/h 22.5 km/h 79 % 0.0 mm 373 W/m2
13:05 9.3 °C 5.3 °C 1026.0 hPa NW 8.0 km/h 25.7 km/h 76 % 0.0 mm 341 W/m2
13:10 9.3 °C 5.1 °C 1026.0 hPa NW 16.1 km/h 24.1 km/h 75 % 0.0 mm 339 W/m2
13:15 9.2 °C 5.0 °C 1026.0 hPa NW 8.0 km/h 25.7 km/h 75 % 0.0 mm 339 W/m2
13:20 9.3 °C 5.1 °C 1026.0 hPa NW 6.4 km/h 25.7 km/h 75 % 0.0 mm 341 W/m2
13:25 9.4 °C 5.0 °C 1026.0 hPa NW 6.4 km/h 25.7 km/h 74 % 0.0 mm 341 W/m2
13:30 9.6 °C 5.4 °C 1025.6 hPa NNW 6.4 km/h 22.5 km/h 75 % 0.0 mm 341 W/m2
13:35 9.6 °C 5.1 °C 1025.6 hPa NW 6.4 km/h 25.7 km/h 74 % 0.0 mm 338 W/m2
13:40 9.7 °C 5.7 °C 1025.6 hPa NNW 3.2 km/h 25.7 km/h 76 % 0.0 mm 334 W/m2
13:45 9.7 °C 5.6 °C 1025.6 hPa NW 1.6 km/h 24.1 km/h 76 % 0.0 mm 336 W/m2
13:50 10.0 °C 5.4 °C 1025.6 hPa NW 9.7 km/h 22.5 km/h 73 % 0.0 mm 343 W/m2
13:55 9.9 °C 5.3 °C 1025.6 hPa WNW 9.7 km/h 22.5 km/h 73 % 0.0 mm 253 W/m2
14:05 9.7 °C 5.3 °C 1025.6 hPa NW 9.7 km/h 25.7 km/h 74 % 0.0 mm 322 W/m2
14:10 9.6 °C 5.2 °C 1025.6 hPa North 11.3 km/h 25.7 km/h 74 % 0.0 mm 320 W/m2
14:15 9.9 °C 5.5 °C 1025.6 hPa NW 8.0 km/h 22.5 km/h 74 % 0.0 mm 318 W/m2
14:20 9.8 °C 5.4 °C 1025.6 hPa NNW 6.4 km/h 22.5 km/h 74 % 0.0 mm 311 W/m2
14:25 9.8 °C 5.4 °C 1025.3 hPa NNW 8.0 km/h 22.5 km/h 74 % 0.0 mm 304 W/m2
14:30 9.8 °C 5.6 °C 1025.3 hPa NNW 6.4 km/h 17.7 km/h 75 % 0.0 mm 299 W/m2
14:35 9.9 °C 5.5 °C 1025.6 hPa NNW 8.0 km/h 22.5 km/h 74 % 0.0 mm 294 W/m2
14:40 9.7 °C 5.3 °C 1025.3 hPa NNW 8.0 km/h 22.5 km/h 74 % 0.0 mm 322 W/m2
14:45 10.2 °C 5.5 °C 1025.3 hPa NNW 12.9 km/h 19.3 km/h 73 % 0.0 mm 366 W/m2
14:50 9.7 °C 5.1 °C 1025.3 hPa NNW 4.8 km/h 16.1 km/h 73 % 0.0 mm 81 W/m2
14:55 9.3 °C 5.3 °C 1025.3 hPa NW 6.4 km/h 16.1 km/h 76 % 0.0 mm 264 W/m2
15:00 9.4 °C 5.2 °C 1025.3 hPa WNW 8.0 km/h 17.7 km/h 75 % 0.0 mm 260 W/m2
15:05 9.5 °C 5.5 °C 1025.3 hPa NW 14.5 km/h 17.7 km/h 76 % 0.0 mm 302 W/m2
15:10 9.6 °C 5.2 °C 1025.3 hPa NNW 8.0 km/h 20.9 km/h 74 % 0.0 mm 114 W/m2
15:15 9.2 °C 5.0 °C 1025.3 hPa NW 19.3 km/h 20.9 km/h 75 % 0.0 mm 114 W/m2
15:20 9.1 °C 5.0 °C 1025.3 hPa NW 14.5 km/h 19.3 km/h 76 % 0.0 mm 243 W/m2
15:25 9.3 °C 5.1 °C 1025.3 hPa WNW 8.0 km/h 19.3 km/h 75 % 0.0 mm 221 W/m2
15:30 9.3 °C 5.1 °C 1025.3 hPa NNW 14.5 km/h 19.3 km/h 75 % 0.0 mm 214 W/m2
15:35 9.3 °C 5.3 °C 1025.3 hPa NNW 11.3 km/h 17.7 km/h 76 % 0.0 mm 206 W/m2
15:40 9.2 °C 5.2 °C 1025.3 hPa NW 1.6 km/h 19.3 km/h 76 % 0.0 mm 206 W/m2
15:45 9.2 °C 5.2 °C 1025.3 hPa NW 6.4 km/h 19.3 km/h 76 % 0.0 mm 200 W/m2
15:50 9.3 °C 5.1 °C 1025.3 hPa NNW 8.0 km/h 20.9 km/h 75 % 0.0 mm 199 W/m2
15:55 9.3 °C 5.1 °C 1025.3 hPa WNW 11.3 km/h 20.9 km/h 75 % 0.0 mm 213 W/m2
16:00 9.4 °C 5.2 °C 1025.3 hPa NNW 6.4 km/h 19.3 km/h 75 % 0.0 mm 171 W/m2
16:05 9.5 °C 5.3 °C 1025.3 hPa West 12.9 km/h 19.3 km/h 75 % 0.0 mm 116 W/m2
16:10 9.2 °C 5.4 °C 1025.3 hPa NNW 9.7 km/h 19.3 km/h 77 % 0.0 mm 53 W/m2
16:15 8.8 °C 5.6 °C 1025.6 hPa NW 6.4 km/h 19.3 km/h 80 % 0.0 mm 19 W/m2
16:20 8.1 °C 5.5 °C 1025.6 hPa NW 4.8 km/h 25.7 km/h 84 % 0.3 mm 18 W/m2
16:25 7.2 °C 5.1 °C 1025.6 hPa North 6.4 km/h 25.7 km/h 87 % 0.3 mm 44 W/m2
16:30 6.7 °C 5.0 °C 1025.6 hPa NNW 4.8 km/h 16.1 km/h 89 % 0.3 mm 35 W/m2
16:35 6.3 °C 5.0 °C 1025.6 hPa NW 3.2 km/h 9.7 km/h 91 % 0.3 mm 44 W/m2
16:40 6.1 °C 4.8 °C 1025.6 hPa NW 1.6 km/h 6.4 km/h 91 % 0.3 mm 33 W/m2
16:45 6.0 °C 4.8 °C 1025.6 hPa Calm   4.8 km/h 92 % 0.3 mm 26 W/m2
16:50 6.1 °C 4.9 °C 1025.6 hPa Calm   4.8 km/h 92 % 0.3 mm 28 W/m2
16:55 5.9 °C 4.7 °C 1025.6 hPa Calm   3.2 km/h 92 % 0.3 mm 26 W/m2
17:00 5.7 °C 4.7 °C 1025.6 hPa Calm   1.6 km/h 93 % 0.3 mm 21 W/m2
17:05 5.4 °C 4.4 °C 1025.6 hPa Calm     93 % 0.3 mm 21 W/m2
17:10 5.3 °C 4.4 °C 1025.6 hPa Calm   1.6 km/h 94 % 0.3 mm 12 W/m2
17:15 5.4 °C 4.5 °C 1025.6 hPa Calm   1.6 km/h 94 % 0.3 mm 7 W/m2
17:20 5.4 °C 4.7 °C 1026.0 hPa Calm   1.6 km/h 95 % 0.0 mm 9 W/m2
17:25 5.4 °C 4.7 °C 1026.0 hPa Calm   1.6 km/h 95 % 0.0 mm 9 W/m2
17:30 5.2 °C 4.5 °C 1026.0 hPa Calm   1.6 km/h 95 % 0.0 mm 7 W/m2
17:40 5.1 °C 4.4 °C 1026.0 hPa Calm   6.4 km/h 95 % 0.0 mm 0 W/m2
17:45 5.2 °C 4.6 °C 1026.0 hPa Calm   6.4 km/h 96 % 0.0 mm 0 W/m2
17:50 5.2 °C 4.6 °C 1026.0 hPa Calm   1.6 km/h 96 % 0.0 mm 0 W/m2
17:55 5.2 °C 4.6 °C 1026.0 hPa Calm   1.6 km/h 96 % 0.0 mm 0 W/m2
18:00 5.1 °C 4.5 °C 1026.0 hPa Calm     96 % 0.0 mm 0 W/m2
18:05 5.1 °C 4.5 °C 1026.0 hPa Calm     96 % 0.0 mm 0 W/m2
18:10 5.0 °C 4.4 °C 1026.0 hPa NW 3.2 km/h 3.2 km/h 96 % 0.0 mm 0 W/m2
18:15 4.8 °C 4.2 °C 1026.0 hPa Calm   4.8 km/h 96 % 0.0 mm 0 W/m2
18:20 4.6 °C 3.8 °C 1026.0 hPa Calm   4.8 km/h 95 % 0.0 mm 0 W/m2
18:25 4.3 °C 3.7 °C 1026.0 hPa Calm   1.6 km/h 96 % 0.0 mm 0 W/m2
18:30 4.2 °C 3.6 °C 1026.0 hPa NW 1.6 km/h 3.2 km/h 96 % 0.0 mm 0 W/m2
18:35 4.0 °C 3.4 °C 1026.0 hPa Calm   3.2 km/h 96 % 0.0 mm 0 W/m2
18:40 3.7 °C 3.1 °C 1026.0 hPa Calm   3.2 km/h 96 % 0.0 mm 0 W/m2
18:45 3.5 °C 2.9 °C 1026.0 hPa Calm   1.6 km/h 96 % 0.3 mm 0 W/m2
18:55 3.4 °C 2.8 °C 1026.0 hPa NW 3.2 km/h 4.8 km/h 96 % 0.3 mm 0 W/m2
19:00 3.3 °C 2.7 °C 1026.0 hPa Calm   8.0 km/h 96 % 0.3 mm 0 W/m2
19:05 3.3 °C 2.7 °C 1026.0 hPa Calm   8.0 km/h 96 % 0.3 mm 0 W/m2
19:10 3.3 °C 2.7 °C 1026.0 hPa Calm   4.8 km/h 96 % 0.3 mm 0 W/m2
19:15 3.2 °C 2.6 °C 1026.3 hPa Calm   3.2 km/h 96 % 0.3 mm 0 W/m2
19:20 3.2 °C 2.6 °C 1026.3 hPa NW 1.6 km/h 8.0 km/h 96 % 0.3 mm 0 W/m2
19:25 3.3 °C 2.8 °C 1026.0 hPa NW 3.2 km/h 8.0 km/h 97 % 0.3 mm 0 W/m2
19:30 3.3 °C 2.8 °C 1026.0 hPa NW 3.2 km/h 4.8 km/h 97 % 0.3 mm 0 W/m2
19:35 3.3 °C 2.8 °C 1026.3 hPa Calm   6.4 km/h 97 % 0.3 mm 0 W/m2
19:40 3.3 °C 2.8 °C 1026.3 hPa WNW 3.2 km/h 6.4 km/h 97 % 0.3 mm 0 W/m2
19:45 3.3 °C 2.9 °C 1026.3 hPa Calm   9.7 km/h 97 % 0.0 mm 0 W/m2
19:55 3.7 °C 3.3 °C 1026.3 hPa NW 6.4 km/h 9.7 km/h 97 % 0.0 mm 0 W/m2
20:00 3.9 °C 3.5 °C 1026.3 hPa NW 6.4 km/h 9.7 km/h 97 % 0.0 mm 0 W/m2
20:05 4.2 °C 3.8 °C 1026.3 hPa WNW 4.8 km/h 11.3 km/h 97 % 0.0 mm 0 W/m2
20:10 4.4 °C 4.0 °C 1026.0 hPa NW 9.7 km/h 11.3 km/h 97 % 0.0 mm 0 W/m2
20:15 4.7 °C 4.2 °C 1026.0 hPa NW 4.8 km/h 11.3 km/h 97 % 0.0 mm 0 W/m2
20:20 4.6 °C 4.2 °C 1026.3 hPa WNW 6.4 km/h 9.7 km/h 97 % 0.0 mm 0 W/m2
20:25 4.4 °C 3.9 °C 1026.0 hPa NW 4.8 km/h 9.7 km/h 96 % 0.0 mm 0 W/m2
20:30 4.5 °C 4.1 °C 1026.0 hPa NW 6.4 km/h 9.7 km/h 97 % 0.0 mm 0 W/m2
20:35 4.6 °C 4.2 °C 1026.0 hPa WNW 3.2 km/h 9.7 km/h 97 % 0.0 mm 0 W/m2
20:40 4.6 °C 4.0 °C 1026.3 hPa NW 1.6 km/h 9.7 km/h 96 % 0.0 mm 0 W/m2
20:45 4.6 °C 4.0 °C 1026.3 hPa NNW 6.4 km/h 9.7 km/h 96 % 0.0 mm 0 W/m2
20:50 4.4 °C 3.9 °C 1026.3 hPa NW 1.6 km/h 9.7 km/h 96 % 0.0 mm 0 W/m2
20:55 4.3 °C 3.8 °C 1026.3 hPa WNW 3.2 km/h 9.7 km/h 96 % 0.0 mm 0 W/m2
21:00 4.4 °C 3.9 °C 1026.3 hPa WNW 3.2 km/h 9.7 km/h 96 % 0.0 mm 0 W/m2
21:05 4.4 °C 3.8 °C 1026.3 hPa NW 6.4 km/h 9.7 km/h 96 % 0.0 mm 0 W/m2
21:10 4.3 °C 3.8 °C 1026.3 hPa WNW 4.8 km/h 11.3 km/h 96 % 0.0 mm 0 W/m2
21:15 4.5 °C 3.9 °C 1026.3 hPa NW 3.2 km/h 14.5 km/h 96 % 0.0 mm 0 W/m2
21:20 4.8 °C 4.2 °C 1026.3 hPa NW 8.0 km/h 14.5 km/h 96 % 0.0 mm 0 W/m2
21:25 4.9 °C 4.4 °C 1026.3 hPa WNW 3.2 km/h 12.9 km/h 96 % 0.0 mm 0 W/m2
21:30 5.1 °C 4.5 °C 1026.3 hPa NW 1.6 km/h 12.9 km/h 96 % 0.0 mm 0 W/m2
21:35 5.2 °C 4.4 °C 1026.3 hPa NW 6.4 km/h 12.9 km/h 95 % 0.0 mm 0 W/m2
21:40 5.1 °C 4.4 °C 1026.3 hPa WNW 4.8 km/h 12.9 km/h 95 % 0.0 mm 0 W/m2
21:45 5.1 °C 4.4 °C 1026.3 hPa WNW 4.8 km/h 11.3 km/h 95 % 0.0 mm 0 W/m2
21:50 5.1 °C 4.2 °C 1026.3 hPa NW 1.6 km/h 11.3 km/h 94 % 0.0 mm 0 W/m2
21:55 5.1 °C 4.3 °C 1026.3 hPa WNW 6.4 km/h 12.9 km/h 95 % 0.0 mm 0 W/m2
22:00 5.2 °C 4.5 °C 1026.3 hPa WNW 6.4 km/h 12.9 km/h 95 % 0.0 mm 0 W/m2
22:05 5.0 °C 4.1 °C 1026.3 hPa NW 8.0 km/h 12.9 km/h 94 % 0.0 mm 0 W/m2
22:10 4.9 °C 4.0 °C 1026.3 hPa North 11.3 km/h 12.9 km/h 94 % 0.0 mm 0 W/m2
22:15 5.0 °C 4.3 °C 1026.3 hPa NW 4.8 km/h 12.9 km/h 95 % 0.0 mm 0 W/m2
22:20 5.0 °C 4.1 °C 1026.3 hPa NNW 1.6 km/h 12.9 km/h 94 % 0.0 mm 0 W/m2
22:25 4.9 °C 4.0 °C 1026.3 hPa NW 6.4 km/h 12.9 km/h 94 % 0.0 mm 0 W/m2
22:30 5.0 °C 4.3 °C 1026.3 hPa WNW 1.6 km/h 12.9 km/h 95 % 0.0 mm 0 W/m2
22:35 5.0 °C 4.1 °C 1026.3 hPa NW 6.4 km/h 12.9 km/h 94 % 0.0 mm 0 W/m2
22:40 5.0 °C 4.3 °C 1026.3 hPa NNW 12.9 km/h 16.1 km/h 95 % 0.0 mm 0 W/m2
22:45 5.0 °C 4.3 °C 1026.3 hPa NNW 11.3 km/h 16.1 km/h 95 % 0.0 mm 0 W/m2
22:50 4.8 °C 4.1 °C 1026.3 hPa NW 4.8 km/h 14.5 km/h 95 % 0.0 mm 0 W/m2
22:55 4.8 °C 4.1 °C 1026.3 hPa NW 3.2 km/h 12.9 km/h 95 % 0.0 mm 0 W/m2
23:00 4.9 °C 4.2 °C 1026.3 hPa NNW 6.4 km/h 12.9 km/h 95 % 0.0 mm 0 W/m2
23:05 4.8 °C 4.1 °C 1026.3 hPa WNW 9.7 km/h 12.9 km/h 95 % 0.0 mm 0 W/m2
23:10 4.8 °C 4.1 °C 1026.6 hPa NW 8.0 km/h 16.1 km/h 95 % 0.0 mm 0 W/m2
23:15 5.2 °C 4.6 °C 1026.3 hPa NNW 11.3 km/h 16.1 km/h 96 % 0.0 mm 0 W/m2
23:20 5.4 °C 4.7 °C 1026.3 hPa North 9.7 km/h 12.9 km/h 95 % 0.0 mm 0 W/m2
23:25 5.5 °C 4.8 °C 1026.3 hPa NW 1.6 km/h 12.9 km/h 95 % 0.0 mm 0 W/m2
23:30 5.5 °C 4.8 °C 1026.3 hPa NW 4.8 km/h 11.3 km/h 95 % 0.0 mm 0 W/m2
23:35 5.5 °C 4.8 °C 1026.6 hPa NW 1.6 km/h 16.1 km/h 95 % 0.0 mm 0 W/m2
23:40 5.6 °C 4.9 °C 1026.3 hPa NW 6.4 km/h 16.1 km/h 95 % 0.0 mm 0 W/m2
23:45 5.8 °C 5.0 °C 1026.3 hPa NW 6.4 km/h 22.5 km/h 95 % 0.0 mm 0 W/m2
23:50 5.8 °C 4.9 °C 1026.6 hPa NW 8.0 km/h 22.5 km/h 94 % 0.0 mm 0 W/m2
23:55 5.8 °C 5.1 °C 1026.6 hPa NW 6.4 km/h 16.1 km/h 95 % 0.0 mm 0 W/m2
Avec l'autorisation de Weather Underground - 1.75 mb